Time;durP1;ratioP1;P1;durP2;ratioP2;P2;SDS_P1;SDS_P2;PMS_P1;PMS_P2;Temp;Humidity;BMP_temperature;BMP_pressure;BME280_temperature;BME280_humidity;BME280_pressure;Samples;Min_cycle;Max_cycle;Signal;HPM_P1;HPM_P2
2023/07/14 00:01:35;;;;;;;8.52;3.63;;;17.30;99.90;;;;;;4973878;28;20306;-59
2023/07/14 00:04:01;;;;;;;17.80;4.35;;;16.40;99.90;;;;;;4973818;28;20203;-59
2023/07/14 00:06:27;;;;;;;9.95;3.00;;;16.40;99.90;;;;;;4973782;28;20234;-60
2023/07/14 00:08:53;;;;;;;9.98;3.35;;;16.40;99.90;;;;;;4973816;28;20184;-60
2023/07/14 00:11:23;;;;;;;8.82;3.70;;;16.40;99.90;;;;;;4973859;28;20180;-60
2023/07/14 00:13:50;;;;;;;8.93;3.40;;;16.40;99.90;;;;;;4973507;28;20557;-60
2023/07/14 00:16:29;;;;;;;8.27;3.70;;;16.40;99.90;;;;;;4973572;28;20693;-60
2023/07/14 00:18:55;;;;;;;10.07;3.47;;;16.40;99.90;;;;;;4973524;28;20183;-60
2023/07/14 00:21:24;;;;;;;7.32;3.38;;;16.30;99.90;;;;;;4973722;28;20206;-60
2023/07/14 00:23:56;;;;;;;9.80;3.28;;;16.20;99.90;;;;;;4973490;28;20254;-60
2023/07/14 00:26:21;;;;;;;10.73;3.40;;;16.20;99.90;;;;;;4973509;28;20222;-60
2023/07/14 00:28:50;;;;;;;9.18;3.40;;;16.50;99.90;;;;;;4973265;28;20184;-60
2023/07/14 00:31:19;;;;;;;11.52;3.45;;;16.10;99.90;;;;;;4973131;28;20164;-60
2023/07/14 00:33:48;;;;;;;11.90;3.75;;;16.20;99.90;;;;;;4973422;28;20176;-60
2023/07/14 00:36:13;;;;;;;11.13;3.40;;;16.20;99.90;;;;;;4973120;28;20191;-60
2023/07/14 00:38:39;;;;;;;7.07;2.88;;;16.20;99.90;;;;;;4973164;28;20226;-61
2023/07/14 00:41:14;;;;;;;10.98;3.10;;;16.20;99.90;;;;;;4973106;28;20172;-60
2023/07/14 00:43:40;;;;;;;10.02;3.05;;;16.20;99.90;;;;;;4973123;28;20245;-61
2023/07/14 00:46:05;;;;;;;12.88;3.65;;;16.30;99.90;;;;;;4972849;28;20759;-61
2023/07/14 00:48:32;;;;;;;6.88;3.30;;;16.30;99.90;;;;;;4973221;28;20227;-61
2023/07/14 00:51:05;;;;;;;9.93;3.15;;;16.30;99.90;;;;;;4971709;28;20177;-61
2023/07/14 00:53:39;;;;;;;7.70;3.00;;;16.30;99.90;;;;;;4972859;28;20179;-61
2023/07/14 00:56:10;;;;;;;9.90;3.42;;;16.20;99.90;;;;;;4972778;28;20223;-63
2023/07/14 00:58:38;;;;;;;8.63;2.85;;;16.30;99.90;;;;;;4960281;28;20704;-63
2023/07/14 01:01:14;;;;;;;8.18;3.13;;;16.30;99.90;;;;;;4972143;28;20202;-63
2023/07/14 01:03:41;;;;;;;4.93;2.72;;;16.30;99.90;;;;;;4965395;28;20725;-64
2023/07/14 01:06:16;;;;;;;8.02;3.08;;;16.30;99.90;;;;;;4953301;28;20212;-63
2023/07/14 01:08:49;;;;;;;9.07;2.42;;;16.30;99.90;;;;;;4953248;28;20172;-63
2023/07/14 01:11:18;;;;;;;4.40;2.78;;;16.20;99.90;;;;;;4953051;28;20173;-64
2023/07/14 01:13:44;;;;;;;7.10;2.97;;;16.30;99.90;;;;;;4953388;28;20168;-64
2023/07/14 01:16:14;;;;;;;9.27;2.90;;;16.30;99.90;;;;;;4962772;28;20213;-64
2023/07/14 01:18:41;;;;;;;7.38;2.70;;;16.20;99.90;;;;;;4972488;28;20215;-64
2023/07/14 01:21:08;;;;;;;9.32;3.22;;;16.30;99.90;;;;;;4972350;28;20239;-64
2023/07/14 01:23:50;;;;;;;9.65;2.75;;;16.20;99.90;;;;;;4971489;28;20274;-64
2023/07/14 01:26:53;;;;;;;9.27;2.40;;;16.20;99.90;;;;;;4955190;28;20172;-64
2023/07/14 01:29:20;;;;;;;6.85;2.85;;;16.50;99.90;;;;;;4964116;28;20179;-63
2023/07/14 01:31:47;;;;;;;8.77;3.50;;;16.30;99.90;;;;;;4971825;28;20175;-64
2023/07/14 01:34:12;;;;;;;8.60;2.70;;;16.30;99.90;;;;;;4972150;28;20183;-63
2023/07/14 01:36:39;;;;;;;10.23;3.28;;;16.30;99.90;;;;;;4971977;28;20251;-64
2023/07/14 01:39:05;;;;;;;8.98;2.95;;;16.20;99.90;;;;;;4972184;28;20175;-63
2023/07/14 01:41:32;;;;;;;7.60;2.92;;;16.30;99.90;;;;;;4972220;28;20168;-63
2023/07/14 01:44:00;;;;;;;9.60;3.08;;;16.30;99.90;;;;;;4972085;28;20172;-63
2023/07/14 01:46:27;;;;;;;8.07;2.65;;;16.30;99.90;;;;;;4971777;28;20234;-63
2023/07/14 01:48:57;;;;;;;9.18;2.75;;;16.20;99.90;;;;;;4972165;28;20204;-63
2023/07/14 01:51:24;;;;;;;10.63;2.65;;;16.30;99.90;;;;;;4971771;28;20222;-63
2023/07/14 01:54:22;;;;;;;10.75;2.83;;;16.20;99.90;;;;;;4972028;28;20283;-63
2023/07/14 01:56:49;;;;;;;9.85;2.65;;;16.20;99.90;;;;;;4972780;28;20597;-64
2023/07/14 01:59:19;;;;;;;9.15;2.70;;;16.20;99.90;;;;;;4971769;28;20168;-63
2023/07/14 02:01:47;;;;;;;11.85;3.20;;;16.30;99.90;;;;;;4972038;28;20168;-62
2023/07/14 02:04:29;;;;;;;7.00;2.38;;;16.20;99.90;;;;;;4971921;28;20203;-63
2023/07/14 02:06:56;;;;;;;14.52;3.00;;;16.20;99.90;;;;;;4971933;28;20182;-62
2023/07/14 02:09:23;;;;;;;5.72;2.70;;;16.20;99.90;;;;;;4971679;28;20634;-62
2023/07/14 02:11:53;;;;;;;7.75;2.55;;;16.20;99.90;;;;;;4971941;28;20251;-62
2023/07/14 02:14:21;;;;;;;7.70;2.55;;;16.20;99.90;;;;;;4971851;28;20271;-63
2023/07/14 02:16:49;;;;;;;15.50;2.70;;;16.30;99.90;;;;;;4971790;28;20207;-62
2023/07/14 02:19:21;;;;;;;10.38;2.50;;;16.20;99.90;;;;;;4971769;28;20255;-62
2023/07/14 02:21:48;;;;;;;10.20;2.80;;;16.20;99.90;;;;;;4972274;28;20182;-62
2023/07/14 02:24:22;;;;;;;7.88;2.35;;;16.20;99.90;;;;;;4971630;28;20180;-62
2023/07/14 02:27:02;;;;;;;5.43;2.42;;;16.20;99.90;;;;;;4971709;28;20602;-62
2023/07/14 02:29:29;;;;;;;10.02;2.50;;;16.20;99.90;;;;;;4971854;28;20183;-62
2023/07/14 02:32:03;;;;;;;9.02;2.50;;;16.20;99.90;;;;;;4971751;28;20183;-62
2023/07/14 02:34:33;;;;;;;6.57;2.35;;;16.30;99.90;;;;;;4959573;28;20188;-63
2023/07/14 02:37:00;;;;;;;5.18;2.15;;;16.30;99.90;;;;;;4971965;28;20215;-63
2023/07/14 02:39:28;;;;;;;8.65;2.40;;;16.30;99.90;;;;;;4975049;28;20177;-63
2023/07/14 02:41:55;;;;;;;5.18;2.10;;;16.40;99.90;;;;;;4974938;28;20195;-63
2023/07/14 02:44:26;;;;;;;7.15;2.10;;;16.50;99.90;;;;;;4974784;28;20234;-63
2023/07/14 02:47:18;;;;;;;6.97;2.00;;;16.40;99.90;;;;;;4975016;28;20203;-63
2023/07/14 02:49:48;;;;;;;6.32;2.63;;;16.50;99.90;;;;;;4974574;28;20161;-63
2023/07/14 02:52:14;;;;;;;6.25;2.53;;;16.50;99.90;;;;;;4974693;28;20184;-63
2023/07/14 02:54:40;;;;;;;7.45;2.15;;;16.50;99.90;;;;;;4974806;28;20244;-63
2023/07/14 02:57:05;;;;;;;4.65;2.08;;;16.60;99.90;;;;;;4974831;28;20260;-62
2023/07/14 02:59:31;;;;;;;6.35;2.17;;;16.60;99.90;;;;;;4973627;28;20308;-62
2023/07/14 03:01:57;;;;;;;5.20;2.10;;;16.50;99.90;;;;;;4974676;28;20584;-59
2023/07/14 03:04:23;;;;;;;9.23;2.40;;;16.60;99.90;;;;;;4974577;28;20176;-59
2023/07/14 03:06:49;;;;;;;4.40;1.65;;;16.70;99.90;;;;;;4974844;28;20483;-59
2023/07/14 03:09:16;;;;;;;5.20;2.10;;;;;;;;;;4974544;28;20191;-60
2023/07/14 03:11:42;;;;;;;6.10;2.40;;;16.70;99.90;;;;;;4974355;28;20199;-60
2023/07/14 03:14:09;;;;;;;4.47;1.95;;;16.60;99.90;;;;;;4973894;28;20175;-61
2023/07/14 03:16:35;;;;;;;3.92;1.95;;;16.70;99.90;;;;;;4974502;28;20270;-63
2023/07/14 03:19:01;;;;;;;8.18;2.38;;;16.70;99.90;;;;;;4974365;28;20176;-63
2023/07/14 03:21:27;;;;;;;5.68;2.33;;;16.70;99.90;;;;;;4974287;28;20702;-66
2023/07/14 03:23:53;;;;;;;7.78;2.13;;;16.70;99.90;;;;;;4973025;28;20188;-63
2023/07/14 03:26:18;;;;;;;7.82;2.47;;;16.70;99.90;;;;;;4974505;28;20192;-63
2023/07/14 03:28:44;;;;;;;5.32;2.15;;;16.70;99.90;;;;;;4974321;28;20549;-62
2023/07/14 03:31:09;;;;;;;11.18;2.53;;;16.70;99.90;;;;;;4974340;28;20182;-62
2023/07/14 03:33:35;;;;;;;6.13;2.10;;;16.70;99.90;;;;;;4973808;28;20647;-62
2023/07/14 03:36:06;;;;;;;10.48;2.03;;;16.60;99.90;;;;;;4973950;28;20187;-62
2023/07/14 03:38:38;;;;;;;9.05;2.90;;;16.60;99.90;;;;;;4970785;28;20203;-62
2023/07/14 03:41:04;;;;;;;6.05;2.50;;;16.60;99.90;;;;;;4973763;28;20262;-63
2023/07/14 03:43:30;;;;;;;8.60;3.03;;;16.60;99.90;;;;;;4973873;28;20601;-63
2023/07/14 03:45:58;;;;;;;4.75;2.20;;;16.60;99.90;;;;;;4973522;28;20219;-62
2023/07/14 03:48:24;;;;;;;9.13;2.38;;;16.50;99.90;;;;;;4973215;28;20711;-62
2023/07/14 03:50:50;;;;;;;8.18;2.33;;;16.60;99.90;;;;;;4973594;28;20271;-62
2023/07/14 03:53:16;;;;;;;3.60;2.25;;;16.60;99.90;;;;;;4973643;28;20222;-62
2023/07/14 03:55:42;;;;;;;8.88;2.85;;;16.60;99.90;;;;;;4973773;28;20318;-62
2023/07/14 03:58:08;;;;;;;6.93;2.80;;;16.50;99.90;;;;;;4973923;28;20251;-62
2023/07/14 04:00:33;;;;;;;7.13;2.60;;;16.50;99.90;;;;;;4970558;28;20714;-63
2023/07/14 04:02:59;;;;;;;5.28;2.45;;;16.50;99.90;;;;;;4953986;28;20180;-62
2023/07/14 04:05:25;;;;;;;7.93;2.80;;;16.50;99.90;;;;;;4954336;28;20168;-62
2023/07/14 04:07:51;;;;;;;10.48;2.85;;;16.40;99.90;;;;;;4954417;28;20172;-63
2023/07/14 04:10:18;;;;;;;7.03;3.08;;;16.40;99.90;;;;;;4954579;28;20199;-62
2023/07/14 04:12:47;;;;;;;8.25;3.10;;;16.40;99.90;;;;;;4973475;28;20259;-62
2023/07/14 04:15:13;;;;;;;9.18;3.00;;;16.40;99.90;;;;;;4973762;28;20198;-62
2023/07/14 04:17:38;;;;;;;6.68;2.50;;;16.50;99.90;;;;;;4973356;28;20698;-63
2023/07/14 04:20:05;;;;;;;6.05;2.70;;;16.50;99.90;;;;;;4973407;28;20175;-63
2023/07/14 04:22:31;;;;;;;7.18;3.15;;;16.40;99.90;;;;;;4971997;28;20186;-59
2023/07/14 04:25:00;;;;;;;8.88;3.22;;;16.40;99.90;;;;;;4973367;28;20179;-60
2023/07/14 04:27:27;;;;;;;6.90;3.03;;;16.40;99.90;;;;;;4973273;28;20216;-60
2023/07/14 04:29:52;;;;;;;10.45;3.13;;;16.40;99.90;;;;;;4973159;28;20526;-60
2023/07/14 04:32:18;;;;;;;8.30;3.22;;;16.40;99.90;;;;;;4978264;28;20282;-61
2023/07/14 04:34:45;;;;;;;5.68;2.95;;;16.40;99.90;;;;;;4992608;28;20215;-61
2023/07/14 04:37:11;;;;;;;10.35;3.58;;;16.10;99.90;;;;;;4992412;28;20308;-60
2023/07/14 04:39:36;;;;;;;9.40;3.20;;;16.40;99.90;;;;;;4992721;28;20683;-61
2023/07/14 04:42:03;;;;;;;13.35;3.42;;;16.30;99.90;;;;;;4992563;28;20179;-61
2023/07/14 04:44:29;;;;;;;11.70;4.07;;;16.30;99.90;;;;;;4992224;28;20190;-60
2023/07/14 04:46:54;;;;;;;11.10;3.67;;;16.20;99.90;;;;;;4991136;28;20175;-61
2023/07/14 04:49:20;;;;;;;13.50;4.18;;;16.20;99.90;;;;;;4972739;28;20517;-61
2023/07/14 04:51:46;;;;;;;8.65;4.43;;;16.30;99.90;;;;;;4972784;28;20643;-61
2023/07/14 04:54:12;;;;;;;12.50;4.30;;;16.30;99.90;;;;;;4967119;28;20657;-61
2023/07/14 04:56:39;;;;;;;15.98;4.05;;;16.30;99.90;;;;;;4972583;28;20222;-59
2023/07/14 04:59:06;;;;;;;7.85;3.83;;;16.20;99.90;;;;;;4972196;28;20194;-61
2023/07/14 05:01:32;;;;;;;7.25;3.90;;;16.20;99.90;;;;;;4971405;28;20222;-61
2023/07/14 05:03:58;;;;;;;9.45;3.92;;;16.20;99.90;;;;;;4972585;28;20584;-60
2023/07/14 05:06:23;;;;;;;10.60;4.40;;;16.10;99.90;;;;;;4972421;28;20254;-60
2023/07/14 05:08:49;;;;;;;10.27;4.22;;;16.10;99.90;;;;;;4972616;28;20160;-60
2023/07/14 05:11:15;;;;;;;11.98;5.25;;;16.10;99.90;;;;;;4972541;28;20172;-60
2023/07/14 05:13:41;;;;;;;6.88;4.22;;;16.20;99.90;;;;;;4972572;28;20643;-60
2023/07/14 05:16:07;;;;;;;7.78;4.40;;;16.10;99.90;;;;;;4972434;28;20179;-60
2023/07/14 05:18:33;;;;;;;10.57;5.13;;;16.10;99.90;;;;;;4972360;28;20191;-62
2023/07/14 05:21:01;;;;;;;10.15;4.88;;;16.10;99.90;;;;;;4972464;28;20202;-62
2023/07/14 05:23:27;;;;;;;11.52;4.97;;;16.10;99.90;;;;;;4972275;28;20194;-62
2023/07/14 05:25:56;;;;;;;12.05;5.47;;;16.00;99.90;;;;;;4972506;28;20192;-62
2023/07/14 05:28:22;;;;;;;13.75;5.65;;;16.10;99.90;;;;;;4972517;28;20646;-62
2023/07/14 05:30:48;;;;;;;9.07;5.53;;;;;;;;;;4972386;28;20781;-62
2023/07/14 05:33:16;;;;;;;11.80;5.53;;;16.20;99.90;;;;;;4972140;28;20284;-62
2023/07/14 05:35:42;;;;;;;11.32;5.93;;;16.10;99.90;;;;;;4972156;28;20191;-62
2023/07/14 05:38:08;;;;;;;11.35;6.05;;;16.10;99.90;;;;;;4972211;28;20306;-62
2023/07/14 05:40:34;;;;;;;13.15;6.78;;;16.00;99.90;;;;;;4972155;28;20242;-62
2023/07/14 05:42:59;;;;;;;12.15;6.32;;;16.10;99.90;;;;;;4972119;28;20263;-63
2023/07/14 05:45:25;;;;;;;12.95;7.13;;;16.00;99.90;;;;;;4972026;28;20227;-63
2023/07/14 05:47:51;;;;;;;15.55;7.22;;;16.10;99.90;;;;;;4972041;28;20180;-62
2023/07/14 05:50:17;;;;;;;13.70;7.65;;;16.00;99.90;;;;;;4972184;28;20175;-62
2023/07/14 05:52:44;;;;;;;13.63;7.75;;;16.10;99.90;;;;;;4972020;28;20172;-62
2023/07/14 05:55:10;;;;;;;12.75;7.32;;;16.00;99.90;;;;;;4971263;28;20183;-62
2023/07/14 05:57:36;;;;;;;12.25;7.72;;;16.00;99.90;;;;;;4971925;28;20203;-62
2023/07/14 06:00:06;;;;;;;12.95;8.40;;;16.00;99.90;;;;;;4971314;28;20195;-62
2023/07/14 06:02:31;;;;;;;11.40;7.75;;;16.00;99.90;;;;;;4971856;28;20643;-62
2023/07/14 06:05:00;;;;;;;16.10;7.35;;;16.00;99.90;;;;;;4971771;28;20178;-60
2023/07/14 06:07:25;;;;;;;11.00;6.85;;;16.00;99.90;;;;;;4972077;28;20207;-60
2023/07/14 06:09:51;;;;;;;10.02;6.95;;;16.00;99.90;;;;;;4971869;28;20748;-60
2023/07/14 06:12:16;;;;;;;10.48;5.63;;;16.00;99.90;;;;;;4974015;28;20180;-60
2023/07/14 06:14:43;;;;;;;14.15;6.35;;;16.00;99.90;;;;;;4975829;28;20179;-59
2023/07/14 06:17:10;;;;;;;9.85;6.03;;;16.10;99.90;;;;;;4975729;28;20234;-63
2023/07/14 06:19:37;;;;;;;9.65;6.57;;;16.00;99.90;;;;;;4975874;28;20266;-64
2023/07/14 06:22:04;;;;;;;10.85;6.85;;;16.10;99.90;;;;;;4974970;28;20215;-63
2023/07/14 06:24:30;;;;;;;11.05;7.30;;;16.00;99.90;;;;;;4956364;28;20183;-61
2023/07/14 06:26:56;;;;;;;10.70;6.38;;;16.00;99.90;;;;;;4956300;28;20232;-65
2023/07/14 06:29:22;;;;;;;8.10;5.53;;;15.90;99.90;;;;;;4956234;28;20295;-63
2023/07/14 06:31:48;;;;;;;9.55;5.30;;;15.80;99.90;;;;;;4956192;28;20176;-63
2023/07/14 06:34:14;;;;;;;15.95;4.80;;;15.80;99.90;;;;;;4973383;28;20199;-64
2023/07/14 06:36:39;;;;;;;6.93;4.38;;;15.80;99.90;;;;;;4975100;28;20566;-64
2023/07/14 06:39:07;;;;;;;7.53;4.85;;;15.80;99.90;;;;;;4975260;28;20674;-64
2023/07/14 06:41:33;;;;;;;5.25;4.20;;;15.80;99.90;;;;;;4975212;28;20752;-62
2023/07/14 06:44:00;;;;;;;8.38;4.68;;;15.80;99.90;;;;;;4975070;28;20172;-63
2023/07/14 06:46:26;;;;;;;8.00;4.35;;;15.80;99.90;;;;;;4974609;28;20212;-64
2023/07/14 06:48:52;;;;;;;5.35;4.03;;;15.80;99.90;;;;;;4974711;28;20698;-64
2023/07/14 06:51:17;;;;;;;6.40;3.90;;;15.80;99.90;;;;;;4974777;28;20164;-64
2023/07/14 06:53:43;;;;;;;7.32;4.20;;;15.90;99.90;;;;;;4974802;28;20211;-64
2023/07/14 06:56:09;;;;;;;8.77;4.30;;;15.80;99.90;;;;;;4974854;28;20230;-63
2023/07/14 06:58:35;;;;;;;6.75;4.07;;;15.80;99.90;;;;;;4974797;28;20180;-63
2023/07/14 07:01:02;;;;;;;5.07;3.47;;;15.80;99.90;;;;;;4974022;28;20176;-62
2023/07/14 07:03:28;;;;;;;4.65;3.40;;;15.70;99.90;;;;;;4973692;28;20302;-67
2023/07/14 07:05:55;;;;;;;6.00;3.70;;;15.70;99.90;;;;;;4974769;28;20680;-66
2023/07/14 07:08:21;;;;;;;6.45;3.40;;;15.70;99.90;;;;;;4973093;28;20335;-65
2023/07/14 07:10:48;;;;;;;6.40;3.40;;;15.60;99.90;;;;;;4974579;28;20266;-66
2023/07/14 07:13:14;;;;;;;8.20;3.45;;;15.70;99.90;;;;;;4974607;28;20203;-65
2023/07/14 07:15:40;;;;;;;8.35;3.58;;;15.80;99.90;;;;;;4974560;28;20191;-66
2023/07/14 07:18:06;;;;;;;6.90;3.92;;;;;;;;;;4973919;28;20208;-60
2023/07/14 07:20:34;;;;;;;6.57;3.65;;;15.80;99.90;;;;;;4974145;28;20202;-63
2023/07/14 07:23:00;;;;;;;7.93;3.58;;;15.70;99.90;;;;;;4973319;28;20184;-62
2023/07/14 07:25:26;;;;;;;5.47;4.10;;;15.70;99.90;;;;;;4974191;28;20250;-63
2023/07/14 07:27:51;;;;;;;6.55;4.05;;;15.70;99.90;;;;;;4972831;28;20184;-63
2023/07/14 07:30:17;;;;;;;6.85;3.65;;;16.00;99.90;;;;;;4974270;28;20623;-61
2023/07/14 07:32:45;;;;;;;6.28;3.50;;;15.70;99.90;;;;;;4974354;28;20180;-62
2023/07/14 07:35:11;;;;;;;6.82;3.75;;;15.70;99.90;;;;;;4974187;28;20175;-62
2023/07/14 07:37:36;;;;;;;5.47;3.40;;;15.80;99.90;;;;;;4974226;28;20673;-61
2023/07/14 07:40:03;;;;;;;7.78;3.50;;;15.80;99.90;;;;;;4974351;28;20184;-61
2023/07/14 07:42:28;;;;;;;4.13;2.88;;;16.30;99.90;;;;;;4973820;28;20240;-62
2023/07/14 07:44:54;;;;;;;4.53;2.50;;;15.80;99.90;;;;;;4972984;28;20662;-62
2023/07/14 07:47:20;;;;;;;6.85;3.05;;;15.70;99.90;;;;;;4974055;28;20175;-61
2023/07/14 07:49:46;;;;;;;6.55;2.60;;;15.80;99.90;;;;;;4974015;28;20168;-60
2023/07/14 07:52:12;;;;;;;7.05;2.70;;;15.70;99.90;;;;;;4972994;28;20188;-61
2023/07/14 07:54:39;;;;;;;6.10;2.58;;;15.70;99.90;;;;;;4974189;28;20259;-62
2023/07/14 07:57:07;;;;;;;5.57;2.63;;;15.50;99.90;;;;;;4973051;28;20225;-63
2023/07/14 07:59:33;;;;;;;6.78;2.58;;;15.50;99.90;;;;;;4972120;28;20187;-63
2023/07/14 08:01:59;;;;;;;2.58;1.83;;;15.50;99.90;;;;;;4973025;28;20191;-63
2023/07/14 08:04:24;;;;;;;6.57;2.40;;;15.40;99.90;;;;;;4973750;28;20710;-63
2023/07/14 08:06:51;;;;;;;3.95;2.20;;;15.40;99.90;;;;;;4973745;28;20168;-63
2023/07/14 08:09:17;;;;;;;3.92;2.10;;;15.40;99.90;;;;;;4973419;28;20263;-63
2023/07/14 08:11:42;;;;;;;3.90;2.17;;;15.40;99.90;;;;;;4973702;28;20179;-63
2023/07/14 08:14:18;;;;;;;4.80;2.03;;;15.40;99.90;;;;;;4971663;28;20180;-63
2023/07/14 08:16:43;;;;;;;4.13;2.20;;;15.50;99.90;;;;;;4971920;28;20294;-63
2023/07/14 08:19:10;;;;;;;3.17;2.42;;;15.50;99.90;;;;;;4972965;28;20272;-63
2023/07/14 08:21:37;;;;;;;3.47;1.67;;;15.40;99.90;;;;;;4972123;28;20172;-63
2023/07/14 08:24:04;;;;;;;3.58;2.00;;;15.50;99.90;;;;;;4972753;28;20196;-63
2023/07/14 08:26:32;;;;;;;4.07;1.75;;;15.70;99.90;;;;;;4973028;28;20214;-63
2023/07/14 08:28:58;;;;;;;4.85;2.25;;;15.60;99.90;;;;;;4973564;28;20250;-63
2023/07/14 08:31:24;;;;;;;3.65;1.92;;;15.60;99.90;;;;;;4973378;28;20226;-63
2023/07/14 08:33:51;;;;;;;3.67;2.05;;;15.60;99.90;;;;;;4973366;28;20187;-63
2023/07/14 08:36:17;;;;;;;4.63;1.90;;;15.40;99.90;;;;;;4973232;28;20186;-64
2023/07/14 08:38:43;;;;;;;4.22;1.90;;;15.40;99.90;;;;;;4973320;28;20187;-64
2023/07/14 08:41:30;;;;;;;7.75;2.20;;;15.60;99.90;;;;;;4973191;28;20818;-63
2023/07/14 08:44:39;;;;;;;3.97;1.90;;;15.70;99.90;;;;;;4973325;28;20179;-63
2023/07/14 08:47:30;;;;;;;3.15;1.90;;;15.60;99.90;;;;;;4971780;28;20184;-63
2023/07/14 08:50:04;;;;;;;4.75;2.10;;;15.60;99.90;;;;;;4954045;28;20196;-64
2023/07/14 08:52:33;;;;;;;4.38;1.92;;;15.60;99.90;;;;;;4953789;28;20227;-64
2023/07/14 08:55:14;;;;;;;2.35;1.83;;;15.60;99.90;;;;;;4969403;28;20810;-64
2023/07/14 08:57:56;;;;;;;3.17;1.70;;;15.60;99.90;;;;;;4970979;28;20310;-61
2023/07/14 09:00:31;;;;;;;3.92;1.90;;;15.60;99.90;;;;;;4971981;28;20485;-63
2023/07/14 09:03:06;;;;;;;3.50;1.83;;;15.60;99.90;;;;;;4971389;28;20287;-62
2023/07/14 09:05:35;;;;;;;3.03;1.42;;;15.70;99.90;;;;;;4966889;28;20230;-62
2023/07/14 09:08:00;;;;;;;2.15;1.42;;;15.60;99.90;;;;;;4971906;28;20215;-62
2023/07/14 09:10:49;;;;;;;2.25;1.77;;;15.60;99.90;;;;;;4971944;28;20219;-62
2023/07/14 09:13:21;;;;;;;2.58;1.52;;;15.70;99.90;;;;;;4968629;28;20595;-63
2023/07/14 09:15:48;;;;;;;2.92;1.50;;;15.60;99.90;;;;;;4969844;28;20180;-62
2023/07/14 09:18:42;;;;;;;1.75;1.40;;;15.70;99.90;;;;;;4971060;28;20324;-63
2023/07/14 09:21:27;;;;;;;4.88;1.80;;;15.70;99.90;;;;;;4971494;28;20658;-63
2023/07/14 09:24:12;;;;;;;4.93;1.80;;;15.80;99.90;;;;;;4972396;28;20182;-61
2023/07/14 09:26:49;;;;;;;3.17;1.95;;;15.70;99.90;;;;;;4972431;28;20219;-62
2023/07/14 09:29:24;;;;;;;3.10;2.10;;;15.80;99.90;;;;;;4972258;28;20270;-62
2023/07/14 09:32:16;;;;;;;6.40;2.03;;;15.70;99.90;;;;;;4972548;28;20176;-63
2023/07/14 09:34:51;;;;;;;3.92;1.85;;;15.60;99.90;;;;;;4971386;28;20322;-62
2023/07/14 09:37:26;;;;;;;4.25;2.15;;;15.70;99.90;;;;;;4972145;28;20218;-63
2023/07/14 09:40:17;;;;;;;3.17;1.80;;;15.70;99.90;;;;;;4972399;28;20171;-62
2023/07/14 09:42:55;;;;;;;4.20;1.88;;;15.70;99.90;;;;;;4966945;28;20258;-62
2023/07/14 09:45:24;;;;;;;4.78;1.83;;;15.70;99.90;;;;;;4965828;28;20223;-63
2023/07/14 09:48:16;;;;;;;5.32;2.10;;;15.80;99.90;;;;;;4971137;28;20172;-62
2023/07/14 09:50:59;;;;;;;3.78;1.60;;;15.90;99.90;;;;;;4953024;28;20212;-62
2023/07/14 09:53:25;;;;;;;4.60;1.98;;;15.90;99.90;;;;;;4952781;28;20195;-63
2023/07/14 09:55:57;;;;;;;3.47;1.80;;;16.00;99.90;;;;;;4952891;28;20640;-63
2023/07/14 09:58:25;;;;;;;5.50;2.47;;;16.00;99.90;;;;;;4952762;28;20220;-63
2023/07/14 10:00:54;;;;;;;4.35;2.13;;;16.00;99.90;;;;;;4960110;28;20499;-63
2023/07/14 10:03:20;;;;;;;4.85;2.20;;;16.00;99.90;;;;;;4971995;28;20250;-62
2023/07/14 10:05:57;;;;;;;3.85;1.90;;;15.90;99.90;;;;;;4970778;28;20180;-62
2023/07/14 10:08:44;;;;;;;3.85;1.98;;;15.80;99.90;;;;;;4972015;28;20183;-62
2023/07/14 10:11:23;;;;;;;5.22;2.15;;;15.90;99.90;;;;;;4972156;28;20191;-62
2023/07/14 10:14:16;;;;;;;2.80;2.00;;;15.90;99.90;;;;;;4971935;28;20187;-62
2023/07/14 10:16:44;;;;;;;4.13;2.10;;;15.80;99.90;;;;;;4971734;28;20314;-62
2023/07/14 10:19:21;;;;;;;4.15;2.10;;;15.90;99.90;;;;;;4972073;28;20179;-62
2023/07/14 10:21:57;;;;;;;5.78;2.05;;;15.90;99.90;;;;;;4971711;28;20182;-65
2023/07/14 10:24:24;;;;;;;8.07;2.20;;;16.30;99.90;;;;;;4971766;28;20168;-63
2023/07/14 10:27:02;;;;;;;4.35;2.47;;;16.00;99.90;;;;;;4971350;28;20206;-62
2023/07/14 10:30:03;;;;;;;4.32;2.00;;;16.00;99.90;;;;;;4971802;28;20167;-62
2023/07/14 10:32:42;;;;;;;3.47;1.77;;;16.10;99.90;;;;;;4971228;28;20566;-62
2023/07/14 10:35:13;;;;;;;2.33;1.40;;;15.90;99.90;;;;;;4972130;28;20175;-62
2023/07/14 10:37:54;;;;;;;4.18;1.63;;;15.90;99.90;;;;;;4971613;28;20220;-62
2023/07/14 10:40:25;;;;;;;5.90;2.00;;;16.00;99.90;;;;;;4971513;28;20198;-63
2023/07/14 10:42:58;;;;;;;3.35;1.92;;;16.10;99.90;;;;;;4971439;28;20303;-63
2023/07/14 10:45:25;;;;;;;4.80;2.33;;;16.10;99.90;;;;;;4971460;28;20281;-62
2023/07/14 10:48:02;;;;;;;6.82;2.55;;;16.00;99.90;;;;;;4971623;28;20179;-62
2023/07/14 10:50:35;;;;;;;4.68;1.90;;;16.00;99.90;;;;;;4971591;28;20168;-63
2023/07/14 10:53:24;;;;;;;3.28;1.63;;;15.90;99.90;;;;;;4971596;28;20176;-64
2023/07/14 10:55:52;;;;;;;4.43;1.85;;;15.80;99.90;;;;;;4971647;28;20198;-63
2023/07/14 10:58:39;;;;;;;5.93;1.77;;;15.80;99.90;;;;;;4971952;28;20215;-62
2023/07/14 11:01:13;;;;;;;3.00;1.60;;;15.60;99.90;;;;;;4975253;28;20186;-63
2023/07/14 11:03:43;;;;;;;5.18;1.90;;;15.60;99.90;;;;;;4975035;28;20705;-63
2023/07/14 11:06:18;;;;;;;4.57;1.70;;;15.60;99.90;;;;;;4974834;28;20180;-63
2023/07/14 11:08:50;;;;;;;6.40;2.00;;;15.50;99.90;;;;;;4973634;28;20191;-63
2023/07/14 11:11:15;;;;;;;5.03;1.73;;;15.50;99.90;;;;;;4974855;28;20176;-63
2023/07/14 11:13:55;;;;;;;2.88;1.67;;;15.20;99.90;;;;;;4974843;28;20180;-63
2023/07/14 11:16:33;;;;;;;3.28;1.58;;;15.40;99.90;;;;;;4974763;28;20531;-62
2023/07/14 11:19:06;;;;;;;4.40;1.92;;;15.30;99.90;;;;;;4974874;28;20201;-63
2023/07/14 11:21:42;;;;;;;4.57;1.67;;;15.40;99.90;;;;;;4974643;28;20207;-63
2023/07/14 11:24:19;;;;;;;3.97;1.50;;;15.30;99.90;;;;;;4974721;28;20206;-63
2023/07/14 11:27:11;;;;;;;5.32;1.38;;;15.30;99.90;;;;;;4974481;28;20183;-63
2023/07/14 11:30:19;;;;;;;4.82;1.83;;;15.40;99.90;;;;;;4974551;28;20207;-63
2023/07/14 11:32:56;;;;;;;2.05;1.20;;;15.30;99.90;;;;;;4972152;28;20637;-62
2023/07/14 11:35:29;;;;;;;2.72;1.30;;;15.30;99.90;;;;;;4974263;28;20262;-62
2023/07/14 11:38:17;;;;;;;6.63;2.08;;;15.20;99.90;;;;;;4974294;28;20235;-62
2023/07/14 11:40:45;;;;;;;4.00;1.48;;;15.20;99.90;;;;;;4974519;28;20184;-63
2023/07/14 11:43:17;;;;;;;4.65;2.08;;;15.20;99.90;;;;;;4974358;28;20172;-63
2023/07/14 11:45:45;;;;;;;7.13;1.58;;;15.30;99.90;;;;;;4974278;28;20227;-63
2023/07/14 11:48:33;;;;;;;5.88;2.00;;;15.40;99.90;;;;;;4974197;28;20244;-63
2023/07/14 11:51:05;;;;;;;3.42;1.75;;;15.30;99.90;;;;;;4974180;28;20176;-63
2023/07/14 11:53:37;;;;;;;3.10;1.45;;;15.80;99.90;;;;;;4974050;28;20172;-63
2023/07/14 11:56:38;;;;;;;4.38;1.60;;;15.40;99.90;;;;;;4974073;28;20701;-63
2023/07/14 11:59:19;;;;;;;5.18;1.65;;;15.30;99.90;;;;;;4973287;28;20203;-63
2023/07/14 12:01:47;;;;;;;4.82;1.45;;;15.20;99.90;;;;;;4974031;28;20184;-63
2023/07/14 12:04:27;;;;;;;4.50;1.80;;;15.20;99.90;;;;;;4972541;28;20180;-63
2023/07/14 12:07:13;;;;;;;3.83;1.60;;;15.20;99.90;;;;;;4973852;28;20639;-63
2023/07/14 12:09:59;;;;;;;3.03;1.63;;;15.20;99.90;;;;;;4973301;28;20210;-62
2023/07/14 12:12:25;;;;;;;4.40;1.60;;;15.00;99.90;;;;;;4966453;28;20169;-63
2023/07/14 12:14:51;;;;;;;3.92;1.80;;;13.10;99.90;;;;;;4967492;28;20176;-62
2023/07/14 12:17:36;;;;;;;3.22;1.27;;;15.00;99.90;;;;;;4973067;28;20215;-62
2023/07/14 12:20:13;;;;;;;2.78;1.40;;;14.90;99.90;;;;;;4954219;28;20172;-62
2023/07/14 12:23:03;;;;;;;3.67;1.60;;;15.00;99.90;;;;;;4954258;28;20247;-62
2023/07/14 12:25:38;;;;;;;3.13;1.70;;;14.60;99.90;;;;;;4954223;28;20188;-62
2023/07/14 12:28:07;;;;;;;3.42;1.70;;;14.70;99.90;;;;;;4954063;28;20172;-62
2023/07/14 12:30:34;;;;;;;3.45;1.55;;;14.80;99.90;;;;;;4962758;28;20668;-63
2023/07/14 12:33:10;;;;;;;4.78;2.00;;;14.80;99.90;;;;;;4973279;28;20270;-63
2023/07/14 12:35:37;;;;;;;3.22;1.63;;;14.80;99.90;;;;;;4973291;28;20208;-63
2023/07/14 12:38:14;;;;;;;4.45;1.83;;;15.00;99.90;;;;;;4973130;28;20211;-63
2023/07/14 12:40:41;;;;;;;2.78;1.40;;;15.00;99.90;;;;;;4973212;28;20175;-62
2023/07/14 12:43:16;;;;;;;2.35;1.35;;;15.10;99.90;;;;;;4973284;28;20226;-63
2023/07/14 12:45:42;;;;;;;3.97;1.63;;;15.10;99.90;;;;;;4973028;28;20733;-63
2023/07/14 12:48:11;;;;;;;3.38;1.20;;;15.30;99.90;;;;;;4972933;28;20172;-62
2023/07/14 12:50:40;;;;;;;2.60;1.50;;;15.30;99.90;;;;;;4973007;28;20179;-62
2023/07/14 12:53:13;;;;;;;2.95;1.45;;;15.30;99.90;;;;;;4972803;28;20650;-62
2023/07/14 12:55:38;;;;;;;4.70;2.10;;;15.30;99.90;;;;;;4972882;28;20168;-63
2023/07/14 12:58:18;;;;;;;6.47;1.73;;;15.60;99.90;;;;;;4972852;28;20245;-62
2023/07/14 13:00:43;;;;;;;4.75;2.05;;;15.40;99.90;;;;;;4972761;28;20167;-62
2023/07/14 13:03:11;;;;;;;3.60;1.70;;;15.40;99.90;;;;;;4972641;28;20175;-62